sensor_id;sensor_type;location;lat;lon;timestamp;P1;durP1;ratioP1;P2;durP2;ratioP2
74469;SDS011;62918;55.706;37.816;2022-09-17T00:00:19;12.43;;;8.85;;
74469;SDS011;62918;55.706;37.816;2022-09-17T00:00:51;11.63;;;9.35;;
74469;SDS011;62918;55.706;37.816;2022-09-17T00:01:24;12.32;;;7.95;;
74469;SDS011;62918;55.706;37.816;2022-09-17T00:01:56;13.45;;;9.15;;
74469;SDS011;62918;55.706;37.816;2022-09-17T00:02:26;11.75;;;9.10;;
74469;SDS011;62918;55.706;37.816;2022-09-17T00:02:59;10.95;;;8.57;;
74469;SDS011;62918;55.706;37.816;2022-09-17T00:03:31;13.80;;;8.15;;
74469;SDS011;62918;55.706;37.816;2022-09-17T00:04:03;11.82;;;10.07;;
74469;SDS011;62918;55.706;37.816;2022-09-17T00:04:34;10.95;;;9.30;;
74469;SDS011;62918;55.706;37.816;2022-09-17T00:05:05;11.10;;;8.80;;
74469;SDS011;62918;55.706;37.816;2022-09-17T00:05:36;10.73;;;9.23;;
74469;SDS011;62918;55.706;37.816;2022-09-17T00:06:08;10.68;;;8.55;;
74469;SDS011;62918;55.706;37.816;2022-09-17T00:06:39;12.48;;;9.25;;
74469;SDS011;62918;55.706;37.816;2022-09-17T00:07:10;12.52;;;8.90;;
74469;SDS011;62918;55.706;37.816;2022-09-17T00:07:40;10.95;;;8.00;;
74469;SDS011;62918;55.706;37.816;2022-09-17T00:08:12;12.60;;;9.77;;
74469;SDS011;62918;55.706;37.816;2022-09-17T00:08:44;11.15;;;8.05;;
74469;SDS011;62918;55.706;37.816;2022-09-17T00:09:15;10.63;;;8.98;;
74469;SDS011;62918;55.706;37.816;2022-09-17T00:09:45;12.57;;;7.88;;
74469;SDS011;62918;55.706;37.816;2022-09-17T00:10:17;12.70;;;9.95;;
74469;SDS011;62918;55.706;37.816;2022-09-17T00:10:49;10.00;;;7.57;;
74469;SDS011;62918;55.706;37.816;2022-09-17T00:11:24;12.65;;;8.50;;
74469;SDS011;62918;55.706;37.816;2022-09-17T00:11:56;14.00;;;10.35;;
74469;SDS011;62918;55.706;37.816;2022-09-17T00:12:27;13.15;;;10.15;;
74469;SDS011;62918;55.706;37.816;2022-09-17T00:12:58;13.60;;;8.65;;
74469;SDS011;62918;55.706;37.816;2022-09-17T00:13:28;17.02;;;10.82;;
74469;SDS011;62918;55.706;37.816;2022-09-17T00:14:00;13.63;;;9.98;;
74469;SDS011;62918;55.706;37.816;2022-09-17T00:14:32;11.10;;;8.35;;
74469;SDS011;62918;55.706;37.816;2022-09-17T00:15:02;11.50;;;9.50;;
74469;SDS011;62918;55.706;37.816;2022-09-17T00:15:43;14.00;;;8.57;;
74469;SDS011;62918;55.706;37.816;2022-09-17T00:16:22;12.05;;;9.82;;
74469;SDS011;62918;55.706;37.816;2022-09-17T00:16:56;12.68;;;9.82;;
74469;SDS011;62918;55.706;37.816;2022-09-17T00:17:26;10.35;;;8.55;;
74469;SDS011;62918;55.706;37.816;2022-09-17T00:17:57;11.93;;;8.27;;
74469;SDS011;62918;55.706;37.816;2022-09-17T00:18:28;12.20;;;8.63;;
74469;SDS011;62918;55.706;37.816;2022-09-17T00:18:58;12.15;;;9.80;;
74469;SDS011;62918;55.706;37.816;2022-09-17T00:19:30;14.57;;;8.90;;
74469;SDS011;62918;55.706;37.816;2022-09-17T00:20:01;14.00;;;10.57;;
74469;SDS011;62918;55.706;37.816;2022-09-17T00:20:36;13.38;;;10.35;;
74469;SDS011;62918;55.706;37.816;2022-09-17T00:21:14;11.68;;;9.10;;
74469;SDS011;62918;55.706;37.816;2022-09-17T00:21:46;13.60;;;10.20;;
74469;SDS011;62918;55.706;37.816;2022-09-17T00:22:17;11.95;;;9.60;;
74469;SDS011;62918;55.706;37.816;2022-09-17T00:22:47;14.73;;;10.38;;
74469;SDS011;62918;55.706;37.816;2022-09-17T00:23:18;15.52;;;9.23;;
74469;SDS011;62918;55.706;37.816;2022-09-17T00:23:51;11.80;;;9.55;;
74469;SDS011;62918;55.706;37.816;2022-09-17T00:24:23;11.73;;;8.70;;
74469;SDS011;62918;55.706;37.816;2022-09-17T00:24:54;12.98;;;10.35;;
74469;SDS011;62918;55.706;37.816;2022-09-17T00:25:24;11.73;;;9.35;;
74469;SDS011;62918;55.706;37.816;2022-09-17T00:25:55;12.98;;;10.45;;
74469;SDS011;62918;55.706;37.816;2022-09-17T00:26:26;14.20;;;9.80;;
74469;SDS011;62918;55.706;37.816;2022-09-17T00:26:57;14.15;;;10.00;;
74469;SDS011;62918;55.706;37.816;2022-09-17T00:27:28;12.40;;;9.85;;
74469;SDS011;62918;55.706;37.816;2022-09-17T00:27:58;11.18;;;8.73;;
74469;SDS011;62918;55.706;37.816;2022-09-17T00:28:29;12.27;;;9.63;;
74469;SDS011;62918;55.706;37.816;2022-09-17T00:28:59;12.98;;;10.60;;
74469;SDS011;62918;55.706;37.816;2022-09-17T00:29:30;11.20;;;8.48;;
74469;SDS011;62918;55.706;37.816;2022-09-17T00:30:01;12.38;;;9.90;;
74469;SDS011;62918;55.706;37.816;2022-09-17T00:30:32;12.88;;;9.60;;
74469;SDS011;62918;55.706;37.816;2022-09-17T00:31:07;13.20;;;9.90;;
74469;SDS011;62918;55.706;37.816;2022-09-17T00:31:38;12.82;;;9.15;;
74469;SDS011;62918;55.706;37.816;2022-09-17T00:32:09;12.30;;;8.52;;
74469;SDS011;62918;55.706;37.816;2022-09-17T00:32:40;11.65;;;8.90;;
74469;SDS011;62918;55.706;37.816;2022-09-17T00:33:11;11.20;;;8.60;;
74469;SDS011;62918;55.706;37.816;2022-09-17T00:33:43;10.77;;;8.40;;
74469;SDS011;62918;55.706;37.816;2022-09-17T00:34:14;11.20;;;9.07;;
74469;SDS011;62918;55.706;37.816;2022-09-17T00:34:44;11.13;;;8.25;;
74469;SDS011;62918;55.706;37.816;2022-09-17T00:35:15;9.65;;;8.15;;
74469;SDS011;62918;55.706;37.816;2022-09-17T00:35:57;11.93;;;9.15;;
74469;SDS011;62918;55.706;37.816;2022-09-17T00:36:33;11.07;;;8.70;;
74469;SDS011;62918;55.706;37.816;2022-09-17T00:37:06;11.95;;;9.32;;
74469;SDS011;62918;55.706;37.816;2022-09-17T00:37:36;11.95;;;9.63;;
74469;SDS011;62918;55.706;37.816;2022-09-17T00:38:07;11.15;;;9.45;;
74469;SDS011;62918;55.706;37.816;2022-09-17T00:38:37;10.32;;;8.48;;
74469;SDS011;62918;55.706;37.816;2022-09-17T00:39:09;10.57;;;8.07;;
74469;SDS011;62918;55.706;37.816;2022-09-17T00:39:44;12.95;;;8.93;;
74469;SDS011;62918;55.706;37.816;2022-09-17T00:40:15;10.13;;;8.48;;
74469;SDS011;62918;55.706;37.816;2022-09-17T00:40:45;13.68;;;10.18;;
74469;SDS011;62918;55.706;37.816;2022-09-17T00:41:16;12.80;;;9.20;;
74469;SDS011;62918;55.706;37.816;2022-09-17T00:41:48;12.18;;;9.40;;
74469;SDS011;62918;55.706;37.816;2022-09-17T00:42:18;13.00;;;8.27;;
74469;SDS011;62918;55.706;37.816;2022-09-17T00:42:49;11.60;;;9.07;;
74469;SDS011;62918;55.706;37.816;2022-09-17T00:45:08;12.20;;;9.27;;
74469;SDS011;62918;55.706;37.816;2022-09-17T00:45:39;10.95;;;8.88;;
74469;SDS011;62918;55.706;37.816;2022-09-17T00:47:02;15.48;;;9.30;;
74469;SDS011;62918;55.706;37.816;2022-09-17T00:47:34;12.00;;;9.13;;
74469;SDS011;62918;55.706;37.816;2022-09-17T00:48:08;12.23;;;8.55;;
74469;SDS011;62918;55.706;37.816;2022-09-17T00:48:40;11.90;;;8.32;;
74469;SDS011;62918;55.706;37.816;2022-09-17T00:49:18;12.00;;;9.60;;
74469;SDS011;62918;55.706;37.816;2022-09-17T00:50:20;13.00;;;7.90;;
74469;SDS011;62918;55.706;37.816;2022-09-17T00:51:03;12.18;;;8.30;;
74469;SDS011;62918;55.706;37.816;2022-09-17T00:51:39;11.88;;;10.07;;
74469;SDS011;62918;55.706;37.816;2022-09-17T00:52:55;13.32;;;8.07;;
74469;SDS011;62918;55.706;37.816;2022-09-17T00:53:29;13.07;;;8.70;;
74469;SDS011;62918;55.706;37.816;2022-09-17T00:54:01;16.00;;;8.75;;
74469;SDS011;62918;55.706;37.816;2022-09-17T00:54:37;13.13;;;7.43;;
74469;SDS011;62918;55.706;37.816;2022-09-17T00:55:51;14.45;;;10.15;;
74469;SDS011;62918;55.706;37.816;2022-09-17T00:56:34;11.50;;;8.75;;
74469;SDS011;62918;55.706;37.816;2022-09-17T00:57:07;15.15;;;8.25;;
74469;SDS011;62918;55.706;37.816;2022-09-17T00:57:38;13.07;;;7.97;;
74469;SDS011;62918;55.706;37.816;2022-09-17T00:58:10;11.43;;;9.90;;
74469;SDS011;62918;55.706;37.816;2022-09-17T00:58:43;10.43;;;9.27;;
74469;SDS011;62918;55.706;37.816;2022-09-17T00:59:14;11.32;;;8.07;;
74469;SDS011;62918;55.706;37.816;2022-09-17T00:59:44;13.55;;;9.73;;
74469;SDS011;62918;55.706;37.816;2022-09-17T01:00:15;11.38;;;9.27;;
74469;SDS011;62918;55.706;37.816;2022-09-17T01:00:46;10.20;;;7.45;;
74469;SDS011;62918;55.706;37.816;2022-09-17T01:01:17;11.48;;;8.60;;
74469;SDS011;62918;55.706;37.816;2022-09-17T01:01:48;11.02;;;7.88;;
74469;SDS011;62918;55.706;37.816;2022-09-17T01:02:19;11.75;;;7.43;;
74469;SDS011;62918;55.706;37.816;2022-09-17T01:02:50;10.05;;;8.43;;
74469;SDS011;62918;55.706;37.816;2022-09-17T01:03:22;10.75;;;7.50;;
74469;SDS011;62918;55.706;37.816;2022-09-17T01:03:52;11.73;;;9.48;;
74469;SDS011;62918;55.706;37.816;2022-09-17T01:04:24;12.68;;;8.30;;
74469;SDS011;62918;55.706;37.816;2022-09-17T01:04:55;10.48;;;8.82;;
74469;SDS011;62918;55.706;37.816;2022-09-17T01:05:47;12.02;;;8.88;;
74469;SDS011;62918;55.706;37.816;2022-09-17T01:06:55;10.43;;;7.75;;
74469;SDS011;62918;55.706;37.816;2022-09-17T01:12:05;10.23;;;7.43;;
74469;SDS011;62918;55.706;37.816;2022-09-17T01:14:12;10.52;;;7.63;;
74469;SDS011;62918;55.706;37.816;2022-09-17T01:21:11;9.07;;;7.30;;
74469;SDS011;62918;55.706;37.816;2022-09-17T01:23:20;10.25;;;6.63;;
74469;SDS011;62918;55.706;37.816;2022-09-17T01:32:32;9.40;;;6.40;;
74469;SDS011;62918;55.706;37.816;2022-09-17T01:34:44;7.18;;;6.22;;
74469;SDS011;62918;55.706;37.816;2022-09-17T01:37:36;9.93;;;6.95;;
74469;SDS011;62918;55.706;37.816;2022-09-17T01:39:04;9.38;;;6.18;;
74469;SDS011;62918;55.706;37.816;2022-09-17T01:41:05;9.45;;;6.20;;
74469;SDS011;62918;55.706;37.816;2022-09-17T01:43:47;10.95;;;7.60;;
74469;SDS011;62918;55.706;37.816;2022-09-17T01:44:28;8.65;;;6.85;;
74469;SDS011;62918;55.706;37.816;2022-09-17T01:45:26;8.48;;;6.38;;
74469;SDS011;62918;55.706;37.816;2022-09-17T01:46:11;7.15;;;6.13;;
74469;SDS011;62918;55.706;37.816;2022-09-17T01:46:50;10.02;;;7.18;;
74469;SDS011;62918;55.706;37.816;2022-09-17T01:48:39;10.90;;;5.90;;
74469;SDS011;62918;55.706;37.816;2022-09-17T01:49:15;9.65;;;6.28;;
74469;SDS011;62918;55.706;37.816;2022-09-17T01:49:47;9.18;;;5.63;;
74469;SDS011;62918;55.706;37.816;2022-09-17T01:50:25;9.13;;;7.20;;
74469;SDS011;62918;55.706;37.816;2022-09-17T01:51:06;11.48;;;6.47;;
74469;SDS011;62918;55.706;37.816;2022-09-17T01:51:40;9.85;;;7.30;;
74469;SDS011;62918;55.706;37.816;2022-09-17T01:52:15;8.27;;;6.97;;
74469;SDS011;62918;55.706;37.816;2022-09-17T01:52:46;8.65;;;5.65;;
74469;SDS011;62918;55.706;37.816;2022-09-17T01:53:20;8.75;;;6.18;;
74469;SDS011;62918;55.706;37.816;2022-09-17T01:54:03;9.13;;;7.10;;
74469;SDS011;62918;55.706;37.816;2022-09-17T01:54:55;8.80;;;6.93;;
74469;SDS011;62918;55.706;37.816;2022-09-17T01:55:31;10.65;;;6.60;;
74469;SDS011;62918;55.706;37.816;2022-09-17T01:56:07;7.43;;;5.65;;
74469;SDS011;62918;55.706;37.816;2022-09-17T01:56:54;8.48;;;6.40;;
74469;SDS011;62918;55.706;37.816;2022-09-17T01:57:31;9.02;;;5.72;;
74469;SDS011;62918;55.706;37.816;2022-09-17T01:58:24;8.95;;;7.47;;
74469;SDS011;62918;55.706;37.816;2022-09-17T01:59:00;9.48;;;5.68;;
74469;SDS011;62918;55.706;37.816;2022-09-17T01:59:38;10.80;;;6.05;;
74469;SDS011;62918;55.706;37.816;2022-09-17T02:00:13;7.97;;;5.72;;
74469;SDS011;62918;55.706;37.816;2022-09-17T02:00:48;9.63;;;7.10;;
74469;SDS011;62918;55.706;37.816;2022-09-17T02:01:24;9.88;;;6.97;;
74469;SDS011;62918;55.706;37.816;2022-09-17T02:02:04;8.98;;;6.32;;
74469;SDS011;62918;55.706;37.816;2022-09-17T02:02:42;10.27;;;7.45;;
74469;SDS011;62918;55.706;37.816;2022-09-17T02:03:27;9.18;;;6.75;;
74469;SDS011;62918;55.706;37.816;2022-09-17T02:04:01;10.00;;;5.95;;
74469;SDS011;62918;55.706;37.816;2022-09-17T02:04:43;10.55;;;6.32;;
74469;SDS011;62918;55.706;37.816;2022-09-17T02:05:20;11.25;;;6.38;;
74469;SDS011;62918;55.706;37.816;2022-09-17T02:06:13;8.88;;;5.80;;
74469;SDS011;62918;55.706;37.816;2022-09-17T02:06:48;8.30;;;5.75;;
74469;SDS011;62918;55.706;37.816;2022-09-17T02:07:22;8.60;;;6.20;;
74469;SDS011;62918;55.706;37.816;2022-09-17T02:09:01;7.30;;;5.53;;
74469;SDS011;62918;55.706;37.816;2022-09-17T02:09:34;8.23;;;5.63;;
74469;SDS011;62918;55.706;37.816;2022-09-17T02:10:10;7.28;;;5.70;;
74469;SDS011;62918;55.706;37.816;2022-09-17T02:10:51;9.48;;;6.18;;
74469;SDS011;62918;55.706;37.816;2022-09-17T02:11:28;8.75;;;6.28;;
74469;SDS011;62918;55.706;37.816;2022-09-17T02:12:02;9.38;;;5.95;;
74469;SDS011;62918;55.706;37.816;2022-09-17T02:12:40;7.95;;;5.90;;
74469;SDS011;62918;55.706;37.816;2022-09-17T02:13:22;8.02;;;5.25;;
74469;SDS011;62918;55.706;37.816;2022-09-17T02:14:04;7.32;;;5.78;;
74469;SDS011;62918;55.706;37.816;2022-09-17T02:14:48;8.15;;;5.63;;
74469;SDS011;62918;55.706;37.816;2022-09-17T02:15:24;6.53;;;5.40;;
74469;SDS011;62918;55.706;37.816;2022-09-17T02:16:01;9.50;;;5.90;;
74469;SDS011;62918;55.706;37.816;2022-09-17T02:16:38;8.45;;;5.60;;
74469;SDS011;62918;55.706;37.816;2022-09-17T02:17:25;8.07;;;5.43;;
74469;SDS011;62918;55.706;37.816;2022-09-17T02:18:57;9.35;;;6.05;;
74469;SDS011;62918;55.706;37.816;2022-09-17T02:19:32;7.38;;;4.30;;
74469;SDS011;62918;55.706;37.816;2022-09-17T02:20:07;7.88;;;5.63;;
74469;SDS011;62918;55.706;37.816;2022-09-17T02:20:40;9.20;;;5.68;;
74469;SDS011;62918;55.706;37.816;2022-09-17T02:22:24;6.93;;;5.43;;
74469;SDS011;62918;55.706;37.816;2022-09-17T02:23:02;9.02;;;6.07;;
74469;SDS011;62918;55.706;37.816;2022-09-17T02:23:40;6.70;;;5.40;;
74469;SDS011;62918;55.706;37.816;2022-09-17T02:24:23;7.57;;;5.63;;
74469;SDS011;62918;55.706;37.816;2022-09-17T02:25:49;6.85;;;5.68;;
74469;SDS011;62918;55.706;37.816;2022-09-17T02:26:26;9.02;;;4.93;;
74469;SDS011;62918;55.706;37.816;2022-09-17T02:26:59;8.10;;;5.22;;
74469;SDS011;62918;55.706;37.816;2022-09-17T02:28:48;8.88;;;5.40;;
74469;SDS011;62918;55.706;37.816;2022-09-17T02:29:28;8.57;;;4.88;;
74469;SDS011;62918;55.706;37.816;2022-09-17T02:30:03;8.82;;;4.82;;
74469;SDS011;62918;55.706;37.816;2022-09-17T02:30:34;6.97;;;5.75;;
74469;SDS011;62918;55.706;37.816;2022-09-17T02:31:05;9.32;;;6.10;;
74469;SDS011;62918;55.706;37.816;2022-09-17T02:31:36;7.47;;;5.25;;
74469;SDS011;62918;55.706;37.816;2022-09-17T02:32:08;7.57;;;5.80;;
74469;SDS011;62918;55.706;37.816;2022-09-17T02:33:12;7.78;;;4.60;;
74469;SDS011;62918;55.706;37.816;2022-09-17T02:33:47;7.88;;;5.18;;
74469;SDS011;62918;55.706;37.816;2022-09-17T02:34:21;7.10;;;5.72;;
74469;SDS011;62918;55.706;37.816;2022-09-17T02:34:52;8.57;;;6.03;;
74469;SDS011;62918;55.706;37.816;2022-09-17T02:35:22;7.85;;;5.88;;
74469;SDS011;62918;55.706;37.816;2022-09-17T02:35:53;8.43;;;6.28;;
74469;SDS011;62918;55.706;37.816;2022-09-17T02:36:24;9.20;;;6.35;;
74469;SDS011;62918;55.706;37.816;2022-09-17T02:36:55;7.55;;;6.55;;
74469;SDS011;62918;55.706;37.816;2022-09-17T02:37:30;8.88;;;6.22;;
74469;SDS011;62918;55.706;37.816;2022-09-17T02:38:00;7.88;;;5.35;;
74469;SDS011;62918;55.706;37.816;2022-09-17T02:38:31;8.77;;;7.05;;
74469;SDS011;62918;55.706;37.816;2022-09-17T02:39:02;7.85;;;6.03;;
74469;SDS011;62918;55.706;37.816;2022-09-17T02:39:33;8.30;;;6.63;;
74469;SDS011;62918;55.706;37.816;2022-09-17T02:40:04;8.07;;;6.18;;
74469;SDS011;62918;55.706;37.816;2022-09-17T02:40:44;7.35;;;5.20;;
74469;SDS011;62918;55.706;37.816;2022-09-17T02:41:22;7.45;;;6.07;;
74469;SDS011;62918;55.706;37.816;2022-09-17T02:43:09;8.32;;;6.75;;
74469;SDS011;62918;55.706;37.816;2022-09-17T02:46:18;7.82;;;5.50;;
74469;SDS011;62918;55.706;37.816;2022-09-17T02:48:14;8.35;;;4.95;;
74469;SDS011;62918;55.706;37.816;2022-09-17T02:50:34;6.00;;;4.55;;
74469;SDS011;62918;55.706;37.816;2022-09-17T02:52:26;11.65;;;8.38;;
74469;SDS011;62918;55.706;37.816;2022-09-17T02:54:30;9.48;;;5.40;;
74469;SDS011;62918;55.706;37.816;2022-09-17T02:56:05;8.85;;;6.35;;
74469;SDS011;62918;55.706;37.816;2022-09-17T02:57:19;7.00;;;4.85;;
74469;SDS011;62918;55.706;37.816;2022-09-17T03:00:36;10.00;;;4.88;;
74469;SDS011;62918;55.706;37.816;2022-09-17T03:01:10;8.52;;;5.15;;
74469;SDS011;62918;55.706;37.816;2022-09-17T03:01:52;6.35;;;4.78;;
74469;SDS011;62918;55.706;37.816;2022-09-17T03:02:31;5.63;;;3.95;;
74469;SDS011;62918;55.706;37.816;2022-09-17T03:03:08;6.32;;;5.20;;
74469;SDS011;62918;55.706;37.816;2022-09-17T03:03:46;5.45;;;4.70;;
74469;SDS011;62918;55.706;37.816;2022-09-17T03:04:20;6.00;;;4.85;;
74469;SDS011;62918;55.706;37.816;2022-09-17T03:04:53;7.70;;;5.43;;
74469;SDS011;62918;55.706;37.816;2022-09-17T03:05:25;8.80;;;5.78;;
74469;SDS011;62918;55.706;37.816;2022-09-17T03:05:58;6.32;;;4.90;;
74469;SDS011;62918;55.706;37.816;2022-09-17T03:06:29;6.93;;;5.18;;
74469;SDS011;62918;55.706;37.816;2022-09-17T03:07:03;6.43;;;5.57;;
74469;SDS011;62918;55.706;37.816;2022-09-17T03:07:38;7.72;;;4.60;;
74469;SDS011;62918;55.706;37.816;2022-09-17T03:08:11;7.82;;;5.22;;
74469;SDS011;62918;55.706;37.816;2022-09-17T03:08:44;6.15;;;4.95;;
74469;SDS011;62918;55.706;37.816;2022-09-17T03:09:16;7.35;;;5.10;;
74469;SDS011;62918;55.706;37.816;2022-09-17T03:09:46;7.22;;;4.75;;
74469;SDS011;62918;55.706;37.816;2022-09-17T03:10:17;6.93;;;5.22;;
74469;SDS011;62918;55.706;37.816;2022-09-17T03:10:48;6.47;;;5.55;;
74469;SDS011;62918;55.706;37.816;2022-09-17T03:11:19;6.53;;;4.55;;
74469;SDS011;62918;55.706;37.816;2022-09-17T03:11:50;6.95;;;5.13;;
74469;SDS011;62918;55.706;37.816;2022-09-17T03:12:21;8.80;;;5.85;;
74469;SDS011;62918;55.706;37.816;2022-09-17T03:12:53;7.80;;;4.88;;
74469;SDS011;62918;55.706;37.816;2022-09-17T03:13:24;7.78;;;5.10;;
74469;SDS011;62918;55.706;37.816;2022-09-17T03:13:55;9.70;;;4.57;;
74469;SDS011;62918;55.706;37.816;2022-09-17T03:14:25;10.18;;;5.00;;
74469;SDS011;62918;55.706;37.816;2022-09-17T03:14:56;12.38;;;5.68;;
74469;SDS011;62918;55.706;37.816;2022-09-17T03:15:29;8.65;;;5.63;;
74469;SDS011;62918;55.706;37.816;2022-09-17T03:16:00;7.90;;;5.75;;
74469;SDS011;62918;55.706;37.816;2022-09-17T03:16:31;6.05;;;4.78;;
74469;SDS011;62918;55.706;37.816;2022-09-17T03:17:02;6.97;;;5.47;;
74469;SDS011;62918;55.706;37.816;2022-09-17T03:17:33;7.40;;;5.50;;
74469;SDS011;62918;55.706;37.816;2022-09-17T03:18:04;9.35;;;5.70;;
74469;SDS011;62918;55.706;37.816;2022-09-17T03:18:35;7.43;;;5.10;;
74469;SDS011;62918;55.706;37.816;2022-09-17T03:19:05;6.65;;;5.43;;
74469;SDS011;62918;55.706;37.816;2022-09-17T03:19:36;7.03;;;5.60;;
74469;SDS011;62918;55.706;37.816;2022-09-17T03:20:06;9.35;;;5.82;;
74469;SDS011;62918;55.706;37.816;2022-09-17T03:20:37;7.85;;;5.72;;
74469;SDS011;62918;55.706;37.816;2022-09-17T03:21:08;8.05;;;5.00;;
74469;SDS011;62918;55.706;37.816;2022-09-17T03:21:39;22.55;;;5.30;;
74469;SDS011;62918;55.706;37.816;2022-09-17T03:22:10;7.65;;;4.63;;
74469;SDS011;62918;55.706;37.816;2022-09-17T03:22:41;6.57;;;4.45;;
74469;SDS011;62918;55.706;37.816;2022-09-17T03:23:12;6.97;;;4.88;;
74469;SDS011;62918;55.706;37.816;2022-09-17T03:23:42;10.27;;;5.30;;
74469;SDS011;62918;55.706;37.816;2022-09-17T03:24:13;5.88;;;5.10;;
74469;SDS011;62918;55.706;37.816;2022-09-17T03:24:43;7.28;;;5.47;;
74469;SDS011;62918;55.706;37.816;2022-09-17T03:25:14;5.53;;;3.80;;
74469;SDS011;62918;55.706;37.816;2022-09-17T03:25:45;5.75;;;4.40;;
74469;SDS011;62918;55.706;37.816;2022-09-17T03:26:16;6.80;;;5.07;;
74469;SDS011;62918;55.706;37.816;2022-09-17T03:26:46;8.27;;;4.07;;
74469;SDS011;62918;55.706;37.816;2022-09-17T03:27:18;6.15;;;4.30;;
74469;SDS011;62918;55.706;37.816;2022-09-17T03:27:48;6.57;;;4.40;;
74469;SDS011;62918;55.706;37.816;2022-09-17T03:28:20;8.90;;;4.88;;
74469;SDS011;62918;55.706;37.816;2022-09-17T03:28:50;7.00;;;4.18;;
74469;SDS011;62918;55.706;37.816;2022-09-17T03:29:21;6.10;;;3.88;;
74469;SDS011;62918;55.706;37.816;2022-09-17T03:29:51;6.28;;;4.40;;
74469;SDS011;62918;55.706;37.816;2022-09-17T03:30:22;6.93;;;4.80;;
74469;SDS011;62918;55.706;37.816;2022-09-17T03:30:53;6.43;;;5.05;;
74469;SDS011;62918;55.706;37.816;2022-09-17T03:31:23;5.40;;;4.47;;
74469;SDS011;62918;55.706;37.816;2022-09-17T03:31:54;6.85;;;5.65;;
74469;SDS011;62918;55.706;37.816;2022-09-17T03:32:24;10.00;;;4.22;;
74469;SDS011;62918;55.706;37.816;2022-09-17T03:32:55;5.50;;;4.20;;
74469;SDS011;62918;55.706;37.816;2022-09-17T03:33:25;5.40;;;4.90;;
74469;SDS011;62918;55.706;37.816;2022-09-17T03:33:56;5.53;;;4.05;;
74469;SDS011;62918;55.706;37.816;2022-09-17T03:34:27;6.05;;;5.03;;
74469;SDS011;62918;55.706;37.816;2022-09-17T03:34:58;6.10;;;5.30;;
74469;SDS011;62918;55.706;37.816;2022-09-17T03:35:28;5.75;;;4.32;;
74469;SDS011;62918;55.706;37.816;2022-09-17T03:35:59;5.88;;;5.00;;
74469;SDS011;62918;55.706;37.816;2022-09-17T03:36:30;5.40;;;4.60;;
74469;SDS011;62918;55.706;37.816;2022-09-17T03:37:00;5.55;;;5.05;;
74469;SDS011;62918;55.706;37.816;2022-09-17T03:37:31;7.05;;;4.18;;
74469;SDS011;62918;55.706;37.816;2022-09-17T03:38:02;6.25;;;3.92;;
74469;SDS011;62918;55.706;37.816;2022-09-17T03:38:33;8.02;;;5.35;;
74469;SDS011;62918;55.706;37.816;2022-09-17T03:39:04;9.13;;;4.80;;
74469;SDS011;62918;55.706;37.816;2022-09-17T03:39:34;5.90;;;5.22;;
74469;SDS011;62918;55.706;37.816;2022-09-17T03:40:05;6.05;;;5.43;;
74469;SDS011;62918;55.706;37.816;2022-09-17T03:40:36;5.90;;;5.22;;
74469;SDS011;62918;55.706;37.816;2022-09-17T03:41:07;6.75;;;4.72;;
74469;SDS011;62918;55.706;37.816;2022-09-17T03:41:37;8.85;;;6.00;;
74469;SDS011;62918;55.706;37.816;2022-09-17T03:42:08;7.47;;;6.15;;
74469;SDS011;62918;55.706;37.816;2022-09-17T03:42:39;6.63;;;5.10;;
74469;SDS011;62918;55.706;37.816;2022-09-17T03:43:09;7.18;;;5.43;;
74469;SDS011;62918;55.706;37.816;2022-09-17T03:43:40;6.45;;;4.22;;
74469;SDS011;62918;55.706;37.816;2022-09-17T03:44:10;6.93;;;5.75;;
74469;SDS011;62918;55.706;37.816;2022-09-17T03:44:41;6.43;;;4.82;;
74469;SDS011;62918;55.706;37.816;2022-09-17T03:45:11;6.05;;;4.97;;
74469;SDS011;62918;55.706;37.816;2022-09-17T03:45:42;8.05;;;4.93;;
74469;SDS011;62918;55.706;37.816;2022-09-17T03:46:12;7.03;;;4.55;;
74469;SDS011;62918;55.706;37.816;2022-09-17T03:46:43;8.02;;;4.97;;
74469;SDS011;62918;55.706;37.816;2022-09-17T03:47:14;6.53;;;4.85;;
74469;SDS011;62918;55.706;37.816;2022-09-17T03:47:45;6.80;;;5.00;;
74469;SDS011;62918;55.706;37.816;2022-09-17T03:48:16;7.43;;;4.60;;
74469;SDS011;62918;55.706;37.816;2022-09-17T03:48:47;6.45;;;4.15;;
74469;SDS011;62918;55.706;37.816;2022-09-17T03:49:17;5.78;;;4.53;;
74469;SDS011;62918;55.706;37.816;2022-09-17T03:49:48;6.03;;;4.97;;
74469;SDS011;62918;55.706;37.816;2022-09-17T03:50:18;8.82;;;4.60;;
74469;SDS011;62918;55.706;37.816;2022-09-17T03:50:49;6.20;;;4.82;;
74469;SDS011;62918;55.706;37.816;2022-09-17T03:51:19;8.55;;;5.00;;
74469;SDS011;62918;55.706;37.816;2022-09-17T03:51:50;6.22;;;4.30;;
74469;SDS011;62918;55.706;37.816;2022-09-17T03:52:20;7.88;;;4.60;;
74469;SDS011;62918;55.706;37.816;2022-09-17T03:52:51;6.72;;;4.60;;
74469;SDS011;62918;55.706;37.816;2022-09-17T03:53:22;6.00;;;4.40;;
74469;SDS011;62918;55.706;37.816;2022-09-17T03:53:52;6.25;;;4.18;;
74469;SDS011;62918;55.706;37.816;2022-09-17T03:54:23;5.43;;;3.08;;
74469;SDS011;62918;55.706;37.816;2022-09-17T03:54:54;4.38;;;3.33;;
74469;SDS011;62918;55.706;37.816;2022-09-17T03:55:25;7.75;;;5.53;;
74469;SDS011;62918;55.706;37.816;2022-09-17T03:55:59;5.72;;;4.70;;
74469;SDS011;62918;55.706;37.816;2022-09-17T03:56:30;5.45;;;4.30;;
74469;SDS011;62918;55.706;37.816;2022-09-17T03:57:04;7.63;;;4.70;;
74469;SDS011;62918;55.706;37.816;2022-09-17T03:57:34;5.35;;;4.72;;
74469;SDS011;62918;55.706;37.816;2022-09-17T03:58:05;6.28;;;4.70;;
74469;SDS011;62918;55.706;37.816;2022-09-17T03:58:36;7.22;;;4.57;;
74469;SDS011;62918;55.706;37.816;2022-09-17T03:59:06;6.38;;;5.18;;
74469;SDS011;62918;55.706;37.816;2022-09-17T03:59:37;6.10;;;5.05;;
74469;SDS011;62918;55.706;37.816;2022-09-17T04:00:07;6.72;;;5.18;;
74469;SDS011;62918;55.706;37.816;2022-09-17T04:00:38;7.32;;;4.53;;
74469;SDS011;62918;55.706;37.816;2022-09-17T04:01:09;5.63;;;5.13;;
74469;SDS011;62918;55.706;37.816;2022-09-17T04:01:39;6.82;;;5.10;;
74469;SDS011;62918;55.706;37.816;2022-09-17T04:02:10;6.60;;;4.72;;
74469;SDS011;62918;55.706;37.816;2022-09-17T04:02:41;6.18;;;4.03;;
74469;SDS011;62918;55.706;37.816;2022-09-17T04:03:12;5.53;;;5.03;;
74469;SDS011;62918;55.706;37.816;2022-09-17T04:03:42;5.65;;;4.30;;
74469;SDS011;62918;55.706;37.816;2022-09-17T04:04:14;4.57;;;3.72;;
74469;SDS011;62918;55.706;37.816;2022-09-17T04:04:44;6.05;;;5.32;;
74469;SDS011;62918;55.706;37.816;2022-09-17T04:05:15;6.28;;;4.93;;
74469;SDS011;62918;55.706;37.816;2022-09-17T04:05:46;7.20;;;5.03;;
74469;SDS011;62918;55.706;37.816;2022-09-17T04:06:16;7.45;;;5.28;;
74469;SDS011;62918;55.706;37.816;2022-09-17T04:06:47;6.65;;;5.50;;
74469;SDS011;62918;55.706;37.816;2022-09-17T04:07:18;6.88;;;4.80;;
74469;SDS011;62918;55.706;37.816;2022-09-17T04:07:48;7.70;;;4.47;;
74469;SDS011;62918;55.706;37.816;2022-09-17T04:08:20;7.63;;;4.88;;
74469;SDS011;62918;55.706;37.816;2022-09-17T04:08:51;8.20;;;5.30;;
74469;SDS011;62918;55.706;37.816;2022-09-17T04:09:22;6.88;;;4.80;;
74469;SDS011;62918;55.706;37.816;2022-09-17T04:09:52;6.82;;;5.28;;
74469;SDS011;62918;55.706;37.816;2022-09-17T04:10:23;7.47;;;5.22;;
74469;SDS011;62918;55.706;37.816;2022-09-17T04:10:54;5.35;;;4.85;;
74469;SDS011;62918;55.706;37.816;2022-09-17T04:11:25;5.85;;;4.78;;
74469;SDS011;62918;55.706;37.816;2022-09-17T04:11:56;7.07;;;5.07;;
74469;SDS011;62918;55.706;37.816;2022-09-17T04:12:26;8.30;;;4.95;;